Dekalb, IL (60115)

9:38 PM CDT on September 01, 2014 (GMT -0500)
South DeKalb | Change Station
CLOSE
Current Station
Personal Weather Station
Location: DeKalb, IL
Elevation: 880 ft
Nearby Weather Stations

Elev 880 ft 41.92 °N, 88.76 °W | Updated 12 seconds ago

Light Rain
Light Rain
69.0 °F
Feels Like 69.0 °F
N
0.0
Wind Variable Wind from SE
Gusts 0.0 mph

Today
High -- | Low -- °F
--% Chance of Precip.
Yesterday
High -- | Low -- °F
Precip. -- in
6:20 AM 7:28 PM
Waxing Crescent, 46% visible
Pressure 29.85 in
Visibility 10.0 miles
Clouds Mostly Cloudy 3200 ft
Overcast 4400 ft
Dew Point 67 °F
Humidity 94%
Rainfall 0.11 in
Snow Depth Not available.
UV 0 out of 12
Pollen 6.30 out of 12
Ozone Good
PM2.5 Good
Flu Activity Not available.
METAR KDKB 020215Z AUTO 28005KT 10SM -RA BKN032 OVC044 21/18 A2985 RMK AO2 T02080184

More Conditions Fewer Conditions

Pressure 29.85 in
Visibility 10.0 miles
Clouds Mostly Cloudy 3200 ft
Overcast 4400 ft
Dew Point 67 °F
Humidity 94%
Rainfall 0.11 in
Snow Depth Not available.
UV 0 out of 12
Pollen 6.30 out of 12
Ozone Good
PM2.5 Good
Flu Activity Not available.
METAR KDKB 020215Z AUTO 28005KT 10SM -RA BKN032 OVC044 21/18 A2985 RMK AO2 T02080184

More Conditions Fewer Conditions

10-Day Weather Forecast

Almanac

Astronomy

Sep. 01, 2014 Rise Set
Actual Time 6:20 AM CDT 7:28 PM CDT
Civil Twilight 5:51 AM CDT 7:57 PM CDT
Nautical Twilight 5:17 AM CDT 8:31 PM CDT
Astronomical Twilight 4:41 AM CDT 9:07 PM CDT
Moon 1:12 PM CDT (9/1) 11:23 PM CDT (9/1)
Length of Visible Light 14h 05m
Length of Day
13h 07m
Tomorrow will be 2m 42s shorter.
Waxing Crescent, 46% of the Moon is Illuminated
Today
Waxing Crescent
Sep 2
First Quarter
Sep 8
Full
Sep 15
Last Quarter
Sep 24
New

Today's Extremes

State Highs State Lows

Community

WunderPhotos

Upload Photos

1,749,506 photos uploaded!

Nearby

Air Quality

  Air Quality AQ Index Pollutant
Yesterday Moderate
PM2.5
Yesterday Good
OZONE
Current Good
PM2.5
Current Good
OZONE
Monday Moderate
PM2.5
Monday Good
OZONE
Tuesday Good
OZONE
Tuesday Good
PM2.5

Snow Depth

Station Depth Elevation
No new snow has been reported.

Earthquake Activity

City Distance Mag. Time & Date
No recent earthquake activity has been reported nearby.
Minimum magnitude displayed is 2.5.

Coastal Water Temperatures

Place Temperature
No Stations Reporting

Nearby Weather Stations